Time;durP1;ratioP1;P1;durP2;ratioP2;P2;SDS_P1;SDS_P2;PMS_P1;PMS_P2;Temp;Humidity;BMP_temperature;BMP_pressure;BME280_temperature;BME280_humidity;BME280_pressure;Samples;Min_cycle;Max_cycle;Signal;HPM_P1;HPM_P2
2022/11/04 00:01:19;;;;;;;30.67;28.87;;;;;;;10.09;100.00;99982.00;5013864;28;20488;-51
2022/11/04 00:03:47;;;;;;;30.17;28.67;;;;;;;10.11;100.00;99982.59;5014227;28;20445;-50
2022/11/04 00:06:16;;;;;;;30.53;29.03;;;;;;;10.12;100.00;99979.72;5014039;28;20425;-47
2022/11/04 00:08:47;;;;;;;30.07;28.60;;;;;;;10.15;100.00;99973.19;5013499;28;20457;-45
2022/11/04 00:14:00;;;;;;;30.23;28.83;;;;;;;10.16;100.00;99972.13;5014063;28;20497;-47
2022/11/04 00:19:12;;;;;;;31.73;29.80;;;;;;;10.17;100.00;99965.78;5013236;28;20464;-52
2022/11/04 00:29:57;;;;;;;30.70;28.90;;;;;;;10.16;100.00;99945.50;5013439;28;20915;-48
2022/11/04 00:35:18;;;;;;;30.70;29.40;;;;;;;10.18;100.00;99948.78;4989422;28;20472;-50
2022/11/04 00:37:47;;;;;;;32.60;30.40;;;;;;;10.19;100.00;99953.06;5011933;28;20468;-46
2022/11/04 00:40:16;;;;;;;30.43;28.93;;;;;;;10.19;100.00;99961.06;5013146;28;20437;-48
2022/11/04 00:42:45;;;;;;;31.57;29.83;;;;;;;10.19;100.00;99961.88;5012976;28;20457;-46
2022/11/04 00:45:13;;;;;;;30.60;29.00;;;;;;;10.20;100.00;99963.53;5013398;28;20827;-46
2022/11/04 00:47:40;;;;;;;31.17;29.67;;;;;;;10.22;100.00;99969.44;5012794;28;20511;-46
2022/11/04 00:50:08;;;;;;;30.70;29.20;;;;;;;10.24;100.00;99959.41;5013168;28;20515;-48
2022/11/04 00:52:36;;;;;;;30.47;29.00;;;;;;;10.23;100.00;99955.09;5012802;28;20452;-49
2022/11/04 00:55:06;;;;;;;31.37;29.60;;;;;;;10.26;100.00;99954.69;5012802;28;20441;-48
2022/11/04 00:57:34;;;;;;;30.70;29.30;;;;;;;10.27;100.00;99952.84;5012413;28;21044;-45
2022/11/04 01:00:01;;;;;;;30.23;28.83;;;;;;;10.27;100.00;99953.66;5013082;28;20495;-47
2022/11/04 01:02:29;;;;;;;30.67;29.20;;;;;;;10.27;100.00;99940.34;5012592;28;21041;-45
2022/11/04 01:04:57;;;;;;;30.30;28.70;;;;;;;10.22;100.00;99933.97;5012911;28;20459;-49
2022/11/04 01:07:24;;;;;;;32.00;30.03;;;;;;;10.22;100.00;99933.97;5012098;28;20827;-46
2022/11/04 01:09:52;;;;;;;29.60;28.20;;;;;;;10.22;100.00;99932.13;5012647;28;20981;-48
2022/11/04 01:12:21;;;;;;;31.23;29.63;;;;;;;10.21;100.00;99919.88;5012461;28;20460;-45
2022/11/04 01:14:48;;;;;;;32.90;31.00;;;;;;;10.19;100.00;99931.75;5012767;28;20437;-47
2022/11/04 01:17:16;;;;;;;32.50;30.37;;;;;;;10.19;100.00;99924.56;5012661;28;20986;-48
2022/11/04 01:19:44;;;;;;;31.30;29.27;;;;;;;10.20;100.00;99922.72;5012040;28;20449;-49
2022/11/04 01:22:12;;;;;;;31.93;30.30;;;;;;;10.20;100.00;99928.06;5020212;28;20453;-47
2022/11/04 01:24:39;;;;;;;32.60;30.77;;;;;;;10.20;100.00;99917.41;4993163;28;20430;-46
2022/11/04 01:27:07;;;;;;;32.70;30.80;;;;;;;10.21;100.00;99913.72;4992968;28;20434;-47
2022/11/04 01:29:36;;;;;;;31.13;29.73;;;;;;;10.20;100.00;99917.41;4992423;28;21045;-46
2022/11/04 01:32:03;;;;;;;32.00;30.50;;;;;;;10.20;100.00;99918.22;4992524;28;20863;-46
2022/11/04 01:34:31;;;;;;;33.17;30.97;;;;;;;10.19;100.00;99913.09;4992529;28;20438;-48
2022/11/04 01:36:58;;;;;;;33.10;31.27;;;;;;;10.18;100.00;99909.63;4992856;28;20481;-50
2022/11/04 01:39:26;;;;;;;32.67;30.90;;;;;;;10.18;100.00;99911.47;4992361;28;20473;-51
2022/11/04 01:41:54;;;;;;;34.93;32.23;;;;;;;10.16;100.00;99905.53;4992373;28;20524;-49
2022/11/04 01:44:49;;;;;;;34.73;32.57;;;;;;;10.15;100.00;99896.75;4992704;28;20466;-46
2022/11/04 01:47:19;;;;;;;33.07;31.30;;;;;;;10.12;100.00;99899.81;4992333;28;20456;-45
2022/11/04 01:49:51;;;;;;;34.97;32.87;;;;;;;10.09;100.00;99896.75;4992388;28;20445;-51
2022/11/04 01:52:24;;;;;;;36.03;33.70;;;;;;;10.06;100.00;99899.84;4992079;28;20994;-50
2022/11/04 01:54:55;;;;;;;34.87;33.10;;;;;;;10.05;100.00;99891.03;4992368;28;20476;-50
2022/11/04 01:57:27;;;;;;;36.00;33.60;;;;;;;10.04;100.00;99889.38;4991833;28;20552;-49
2022/11/04 02:00:01;;;;;;;36.93;34.57;;;;;;;10.03;100.00;99893.09;4992592;28;20493;-50
2022/11/04 02:02:29;;;;;;;36.20;34.30;;;;;;;10.02;100.00;99876.28;4992832;28;20516;-48
2022/11/04 02:04:56;;;;;;;38.10;35.77;;;;;;;10.04;100.00;99873.41;4992281;28;20484;-51
2022/11/04 02:07:24;;;;;;;37.57;35.67;;;;;;;10.04;100.00;99868.06;4991774;28;20847;-51
2022/11/04 02:09:52;;;;;;;38.60;36.30;;;;;;;10.03;100.00;99864.59;4992196;28;20438;-48
2022/11/04 02:15:08;;;;;;;37.97;35.80;;;;;;;10.00;100.00;99862.34;4992429;28;20430;-50
2022/11/04 02:18:06;;;;;;;39.10;37.20;;;;;;;10.01;100.00;99871.97;4991707;28;20532;-47
2022/11/04 02:21:01;;;;;;;40.50;38.13;;;;;;;9.98;100.00;99868.91;5002793;28;20436;-51
2022/11/04 02:23:59;;;;;;;40.90;38.50;;;;;;;9.96;100.00;99869.16;5023505;28;20455;-45
2022/11/04 02:27:02;;;;;;;40.77;38.37;;;;;;;9.91;100.00;99876.97;5031397;28;20428;-46
2022/11/04 02:29:41;;;;;;;40.27;37.87;;;;;;;9.87;100.00;99881.09;5030945;28;20888;-50
2022/11/04 02:32:14;;;;;;;38.80;36.70;;;;;;;9.89;100.00;99886.19;5031159;28;20529;-52
2022/11/04 02:34:53;;;;;;;39.37;37.00;;;;;;;9.87;100.00;99880.25;5031418;28;20481;-51
2022/11/04 02:37:29;;;;;;;40.40;37.57;;;;;;;9.85;100.00;99867.16;5030901;28;20480;-54
2022/11/04 02:40:08;;;;;;;41.80;39.07;;;;;;;9.83;100.00;99860.41;5031513;28;20432;-55
2022/11/04 02:42:41;;;;;;;39.80;37.17;;;;;;;9.80;100.00;99853.66;5031080;28;21024;-53
2022/11/04 02:45:17;;;;;;;41.57;38.97;;;;;;;9.81;100.00;99865.13;5031511;28;20428;-54
2022/11/04 02:47:49;;;;;;;42.90;39.90;;;;;;;9.81;100.00;99865.13;5030750;28;21040;-54
2022/11/04 02:50:21;;;;;;;40.13;37.63;;;;;;;9.77;100.00;99871.91;5031436;28;20484;-54
2022/11/04 02:52:56;;;;;;;42.60;39.63;;;;;;;9.79;100.00;99867.19;5030981;28;20460;-55
2022/11/04 02:55:29;;;;;;;42.00;39.60;;;;;;;9.78;100.00;99863.72;5031430;28;20424;-51
2022/11/04 02:58:01;;;;;;;42.60;39.67;;;;;;;9.77;100.00;99854.09;5030445;28;20467;-49
2022/11/04 03:00:33;;;;;;;42.70;39.90;;;;;;;9.78;100.00;99838.94;5033271;28;20436;-55
2022/11/04 03:03:04;;;;;;;41.57;38.93;;;;;;;9.79;100.00;99844.06;5034782;28;20456;-54
2022/11/04 03:05:36;;;;;;;42.03;38.87;;;;;;;9.78;100.00;99852.25;5034890;28;20932;-52
2022/11/04 03:08:08;;;;;;;41.43;38.47;;;;;;;9.77;100.00;99832.78;5034430;28;20459;-52
2022/11/04 03:10:41;;;;;;;42.27;39.47;;;;;;;9.78;100.00;99838.94;5034985;28;20424;-54
2022/11/04 03:13:13;;;;;;;42.47;39.30;;;;;;;9.79;100.00;99822.75;5034781;28;20518;-55
2022/11/04 03:15:50;;;;;;;42.77;39.73;;;;;;;9.79;100.00;99824.59;5034862;28;20436;-54
2022/11/04 03:18:24;;;;;;;42.90;39.90;;;;;;;9.80;100.00;99839.53;5034190;28;20517;-54
2022/11/04 03:20:56;;;;;;;41.33;38.80;;;;;;;9.79;100.00;99833.41;5028725;28;20485;-54
2022/11/04 03:23:24;;;;;;;44.60;41.23;;;;;;;9.79;100.00;99811.28;5026393;28;20459;-54
2022/11/04 03:25:57;;;;;;;41.80;39.00;;;;;;;9.80;100.00;99803.06;5034606;28;20447;-47
2022/11/04 03:28:35;;;;;;;42.03;38.77;;;;;;;9.81;100.00;99830.50;5034202;28;20509;-52
2022/11/04 03:31:07;;;;;;;42.73;39.73;;;;;;;9.82;100.00;99838.31;5034227;28;20427;-49
2022/11/04 03:33:41;;;;;;;43.90;41.00;;;;;;;9.85;100.00;99843.19;5034337;28;20919;-50
2022/11/04 03:36:09;;;;;;;44.00;40.90;;;;;;;9.87;100.00;99845.63;5034338;28;20897;-49
2022/11/04 03:38:38;;;;;;;43.83;40.63;;;;;;;9.90;100.00;99842.56;5033835;28;20541;-52
2022/11/04 03:41:13;;;;;;;43.37;40.00;;;;;;;9.90;100.00;99838.03;5034081;28;20490;-50
2022/11/04 03:43:41;;;;;;;44.23;41.03;;;;;;;9.91;100.00;99842.34;5033980;28;20459;-47
2022/11/04 03:46:10;;;;;;;41.80;39.00;;;;;;;9.91;100.00;99831.69;5034114;28;20436;-50
2022/11/04 03:48:38;;;;;;;42.67;39.70;;;;;;;9.94;100.00;99833.94;5033627;28;20880;-47
2022/11/04 03:51:06;;;;;;;44.00;41.10;;;;;;;9.94;100.00;99825.94;5033911;28;20432;-51
2022/11/04 03:53:34;;;;;;;44.63;41.73;;;;;;;9.95;100.00;99818.75;5033864;28;21067;-53
2022/11/04 03:56:27;;;;;;;44.83;41.60;;;;;;;9.96;100.00;99821.22;5033983;28;20436;-48
2022/11/04 03:59:07;;;;;;;44.30;41.30;;;;;;;9.96;100.00;99820.38;5033369;28;20476;-50
2022/11/04 04:01:47;;;;;;;42.80;39.90;;;;;;;9.98;100.00;99819.13;5033644;28;20432;-49
2022/11/04 04:04:21;;;;;;;43.47;40.47;;;;;;;9.98;100.00;99818.31;5034060;28;20440;-48
2022/11/04 04:06:52;;;;;;;43.40;40.50;;;;;;;9.98;100.00;99820.97;5034014;28;20435;-47
2022/11/04 04:09:24;;;;;;;43.77;40.63;;;;;;;9.99;100.00;99819.97;5033193;28;20459;-52
2022/11/04 04:11:56;;;;;;;43.80;40.90;;;;;;;9.99;100.00;99814.63;5033272;28;20506;-48
2022/11/04 04:14:40;;;;;;;44.27;41.17;;;;;;;9.97;100.00;99812.16;5033553;28;20436;-50
2022/11/04 04:17:16;;;;;;;45.60;42.50;;;;;;;9.98;100.00;99827.13;5033472;28;20486;-51
2022/11/04 04:19:49;;;;;;;43.43;40.40;;;;;;;9.96;100.00;99826.53;5031845;28;20475;-50
2022/11/04 04:22:20;;;;;;;45.03;42.03;;;;;;;9.95;100.00;99819.56;5021719;28;20664;-52
2022/11/04 04:27:39;;;;;;;46.13;43.17;;;;;;;9.92;100.00;99814.66;5032724;28;20427;-49
2022/11/04 04:30:09;;;;;;;45.30;42.17;;;;;;;9.92;100.00;99803.19;5033500;28;20470;-52
2022/11/04 04:32:41;;;;;;;46.50;43.07;;;;;;;9.92;100.00;99792.53;5032933;28;20460;-47
2022/11/04 04:44:58;;;;;;;46.33;43.00;;;;;;;9.94;100.00;99793.16;5032480;28;20460;-48
2022/11/04 04:46:27;;;;;;;44.70;41.43;;;;;;;9.99;100.00;99794.16;5032970;28;20783;-50
2022/11/04 04:49:04;;;;;;;45.57;42.53;;;;;;;10.03;100.00;99797.19;5032514;28;20464;-52
2022/11/04 04:51:32;;;;;;;43.30;40.40;;;;;;;10.04;100.00;99793.47;5032786;28;20833;-51
2022/11/04 04:53:59;;;;;;;43.27;40.17;;;;;;;10.06;100.00;99793.28;5032850;28;20934;-50
2022/11/04 04:56:27;;;;;;;44.60;41.27;;;;;;;10.10;100.00;99797.13;5032984;28;20440;-47
2022/11/04 04:58:54;;;;;;;45.60;42.20;;;;;;;10.12;100.00;99797.75;5032105;28;20508;-50
2022/11/04 05:01:22;;;;;;;46.60;43.10;;;;;;;10.13;100.00;99802.88;5032579;28;20497;-54
2022/11/04 05:03:50;;;;;;;45.87;42.33;;;;;;;10.13;100.00;99812.69;5032708;28;20538;-47
2022/11/04 05:06:19;;;;;;;46.17;42.93;;;;;;;10.15;100.00;99811.50;5032665;28;20432;-47
2022/11/04 05:08:47;;;;;;;44.40;41.30;;;;;;;10.18;100.00;99812.91;5032108;28;21072;-51
2022/11/04 05:11:14;;;;;;;44.50;41.50;;;;;;;10.20;100.00;99810.81;5032324;28;20432;-49
2022/11/04 05:13:42;;;;;;;45.17;42.10;;;;;;;10.21;100.00;99813.28;5032612;28;20490;-50
2022/11/04 05:16:11;;;;;;;45.93;42.80;;;;;;;10.24;100.00;99812.84;5032741;28;20432;-51
2022/11/04 05:18:38;;;;;;;47.33;44.13;;;;;;;10.24;100.00;99823.53;5031800;28;20534;-48
2022/11/04 05:21:08;;;;;;;46.70;43.70;;;;;;;10.26;100.00;99828.63;5027055;28;20428;-49
2022/11/04 05:23:37;;;;;;;46.53;43.13;;;;;;;10.26;100.00;99829.44;5023618;28;20456;-47
2022/11/04 05:26:05;;;;;;;47.70;44.23;;;;;;;10.28;100.00;99834.53;5032233;28;20440;-50
2022/11/04 05:28:33;;;;;;;48.97;45.70;;;;;;;10.29;100.00;99837.00;5031875;28;20464;-50
2022/11/04 05:31:03;;;;;;;47.70;44.70;;;;;;;10.30;100.00;99838.63;5032082;28;20463;-50
2022/11/04 05:33:31;;;;;;;50.23;46.70;;;;;;;10.32;100.00;99844.56;5032122;28;20472;-52
2022/11/04 05:36:05;;;;;;;48.73;45.50;;;;;;;10.34;100.00;99847.00;5032401;28;20431;-51
2022/11/04 05:38:33;;;;;;;48.73;45.50;;;;;;;10.35;100.00;99852.13;5031616;28;20533;-51
2022/11/04 05:41:02;;;;;;;50.53;47.23;;;;;;;10.38;100.00;99846.34;5032046;28;20494;-49
2022/11/04 05:43:30;;;;;;;49.60;46.40;;;;;;;10.40;100.00;99860.28;5032019;28;20506;-50
2022/11/04 05:45:58;;;;;;;49.37;46.10;;;;;;;10.41;100.00;99871.75;5032081;28;20424;-53
2022/11/04 05:48:26;;;;;;;48.17;45.27;;;;;;;10.42;100.00;99866.19;5031446;28;20464;-53
2022/11/04 05:50:54;;;;;;;49.63;46.10;;;;;;;10.44;100.00;99877.47;5031465;28;20498;-50
2022/11/04 05:53:21;;;;;;;46.70;43.70;;;;;;;10.44;100.00;99874.00;5032071;28;20451;-54
2022/11/04 05:55:49;;;;;;;46.63;43.77;;;;;;;10.45;100.00;99884.41;5031769;28;20436;-50
2022/11/04 05:58:18;;;;;;;46.37;43.47;;;;;;;10.46;100.00;99893.25;5031385;28;20771;-53
2022/11/04 06:00:45;;;;;;;46.47;43.47;;;;;;;10.47;100.00;99890.38;5031551;28;20432;-53
2022/11/04 06:03:13;;;;;;;45.23;42.43;;;;;;;10.48;100.00;99886.66;5031524;28;20456;-52
2022/11/04 06:05:43;;;;;;;44.37;41.20;;;;;;;10.49;100.00;99901.63;5031821;28;20436;-53
2022/11/04 06:08:10;;;;;;;43.73;41.13;;;;;;;10.46;100.00;99895.91;5031187;28;20464;-52
2022/11/04 06:10:38;;;;;;;45.07;42.00;;;;;;;10.43;100.00;99891.81;5031560;28;20922;-48
2022/11/04 06:13:06;;;;;;;45.17;42.27;;;;;;;10.41;100.00;99896.56;5031325;28;20460;-49
2022/11/04 06:15:35;;;;;;;42.87;40.40;;;;;;;10.43;100.00;99907.00;5031548;28;20435;-48
2022/11/04 06:18:02;;;;;;;45.00;42.27;;;;;;;10.42;100.00;99903.50;5030863;28;20464;-50
2022/11/04 06:20:30;;;;;;;46.10;43.30;;;;;;;10.41;100.00;99911.75;5026212;28;20468;-50
2022/11/04 06:22:57;;;;;;;40.50;38.20;;;;;;;10.38;100.00;99920.16;5023063;28;20479;-52
2022/11/04 06:25:25;;;;;;;41.97;39.53;;;;;;;10.39;100.00;99924.47;5031481;28;20428;-49
2022/11/04 06:27:52;;;;;;;41.03;38.70;;;;;;;10.38;100.00;99913.00;5031067;28;20522;-50
2022/11/04 06:30:20;;;;;;;41.10;38.80;;;;;;;10.37;100.00;99919.34;5031298;28;20436;-49
2022/11/04 06:32:49;;;;;;;43.00;40.50;;;;;;;10.34;100.00;99919.75;5031156;28;21208;-49
2022/11/04 06:35:16;;;;;;;42.90;40.40;;;;;;;10.30;100.00;99918.59;5033466;28;20849;-51
2022/11/04 06:37:44;;;;;;;42.43;40.13;;;;;;;10.28;100.00;99914.47;5035110;28;20865;-49
2022/11/04 06:40:12;;;;;;;41.00;38.60;;;;;;;10.24;100.00;99908.78;5035517;28;20467;-47
2022/11/04 06:42:41;;;;;;;40.77;38.47;;;;;;;10.22;100.00;99905.50;5035177;28;20509;-49
2022/11/04 06:45:10;;;;;;;40.77;38.27;;;;;;;10.24;100.00;99911.44;5035410;28;20436;-51
2022/11/04 06:47:38;;;;;;;40.10;37.80;;;;;;;10.22;100.00;99905.50;5035071;28;20432;-47
2022/11/04 06:50:08;;;;;;;39.90;37.70;;;;;;;10.22;100.00;99926.81;5035374;28;20490;-49
2022/11/04 06:52:35;;;;;;;39.13;36.63;;;;;;;10.19;100.00;99924.56;5034949;28;20447;-52
2022/11/04 06:55:09;;;;;;;37.30;35.30;;;;;;;10.16;100.00;99927.66;5035490;28;20450;-50
2022/11/04 06:57:37;;;;;;;38.80;36.70;;;;;;;10.20;100.00;99922.72;5034851;28;20436;-52
2022/11/04 07:00:06;;;;;;;38.83;36.80;;;;;;;10.22;100.00;99926.00;5035403;28;20513;-52
2022/11/04 07:02:33;;;;;;;38.43;35.97;;;;;;;10.20;100.00;99934.22;5034858;28;20876;-51
2022/11/04 07:05:01;;;;;;;38.07;35.43;;;;;;;10.20;100.00;99939.53;5035010;28;20436;-50
2022/11/04 07:07:30;;;;;;;37.13;35.03;;;;;;;10.21;100.00;99935.03;5034575;28;20439;-49
2022/11/04 07:09:57;;;;;;;37.97;35.70;;;;;;;10.20;100.00;99939.53;5034796;28;20505;-53
2022/11/04 07:12:25;;;;;;;39.37;37.03;;;;;;;10.19;100.00;99932.56;5034595;28;20972;-51
2022/11/04 07:14:54;;;;;;;37.73;35.63;;;;;;;10.19;100.00;99940.56;5035035;28;21049;-50
2022/11/04 07:17:22;;;;;;;36.60;34.70;;;;;;;10.19;100.00;99948.56;5034412;28;20850;-51
2022/11/04 07:19:49;;;;;;;38.27;36.17;;;;;;;10.22;100.00;99955.28;5032935;28;20468;-53
2022/11/04 07:22:17;;;;;;;37.00;35.00;;;;;;;10.25;100.00;99958.34;5023386;28;20456;-50
2022/11/04 07:24:46;;;;;;;36.00;33.90;;;;;;;10.26;100.00;99957.34;5034602;28;20489;-50
2022/11/04 07:27:13;;;;;;;36.37;34.37;;;;;;;10.28;100.00;99951.78;5035171;28;20435;-52
2022/11/04 07:29:41;;;;;;;37.33;35.33;;;;;;;10.30;100.00;99950.56;5034540;28;20514;-53
2022/11/04 07:32:08;;;;;;;38.70;36.50;;;;;;;10.30;100.00;99953.22;5034250;28;20510;-54
2022/11/04 07:34:36;;;;;;;38.90;36.73;;;;;;;10.37;100.00;99958.50;5034591;28;20436;-52
2022/11/04 07:37:04;;;;;;;37.70;35.37;;;;;;;10.38;100.00;99968.97;5034474;28;20444;-49
2022/11/04 07:39:31;;;;;;;38.23;35.80;;;;;;;10.43;100.00;99971.78;5034046;28;20507;-45
2022/11/04 07:42:00;;;;;;;36.80;34.80;;;;;;;10.46;100.00;99968.69;5034214;28;20452;-54
2022/11/04 07:44:28;;;;;;;39.07;36.20;;;;;;;10.52;100.00;99967.00;5034210;28;20941;-49
2022/11/04 07:46:55;;;;;;;36.47;33.90;;;;;;;10.57;100.00;99975.22;5034260;28;20435;-48
2022/11/04 07:49:24;;;;;;;35.23;33.03;;;;;;;10.65;100.00;99974.13;5033672;28;20510;-52
2022/11/04 07:51:52;;;;;;;36.60;33.87;;;;;;;10.69;100.00;99980.66;5034091;28;20506;-53
2022/11/04 07:54:19;;;;;;;37.07;34.60;;;;;;;10.72;100.00;99986.34;5034289;28;20440;-48
2022/11/04 07:56:47;;;;;;;38.20;35.63;;;;;;;10.73;100.00;99987.19;5034194;28;20436;-54
2022/11/04 07:59:15;;;;;;;37.20;34.90;;;;;;;10.78;100.00;99998.03;5033458;28;20456;-49
2022/11/04 08:01:43;;;;;;;37.33;34.97;;;;;;;10.84;100.00;99995.31;5033945;28;21143;-48
2022/11/04 08:04:11;;;;;;;36.93;34.53;;;;;;;10.89;100.00;100016.00;5033658;28;20437;-52
2022/11/04 08:06:38;;;;;;;37.50;34.93;;;;;;;10.94;100.00;100018.84;5034018;28;20834;-51
2022/11/04 08:09:06;;;;;;;37.20;34.73;;;;;;;11.00;100.00;100015.31;5033377;28;20835;-51
2022/11/04 08:11:34;;;;;;;38.27;35.83;;;;;;;11.21;100.00;100012.25;5033431;28;20527;-46
2022/11/04 08:14:03;;;;;;;38.20;35.77;;;;;;;11.49;100.00;100022.50;5033740;28;20432;-50
2022/11/04 08:16:32;;;;;;;38.30;35.90;;;;;;;11.65;100.00;100035.25;5033715;28;20490;-46
2022/11/04 08:19:01;;;;;;;40.23;37.50;;;;;;;11.63;100.00;100021.31;5033228;28;20467;-48
2022/11/04 08:21:30;;;;;;;38.83;36.17;;;;;;;11.60;100.00;100035.13;5025766;28;20511;-52
2022/11/04 08:23:58;;;;;;;38.00;34.97;;;;;;;11.55;100.00;100037.63;5028313;28;20436;-48
2022/11/04 08:26:26;;;;;;;37.53;35.07;;;;;;;11.47;100.00;100046.72;5033597;28;20509;-49
2022/11/04 08:28:53;;;;;;;37.70;35.40;;;;;;;11.43;100.00;100047.41;5032931;28;20607;-50
2022/11/04 08:31:24;;;;;;;37.50;35.10;;;;;;;11.33;100.00;100052.41;5033023;28;20798;-48
2022/11/04 08:33:54;;;;;;;36.87;34.40;;;;;;;11.33;100.00;100055.06;5033770;28;20436;-47
2022/11/04 08:36:24;;;;;;;37.03;34.53;;;;;;;11.28;100.00;100057.59;5033468;28;20478;-51
2022/11/04 08:38:52;;;;;;;38.30;36.00;;;;;;;11.29;100.00;100057.34;5032812;28;20460;-50
2022/11/04 08:41:22;;;;;;;36.37;34.27;;;;;;;11.28;100.00;100046.91;5033083;28;20518;-48
2022/11/04 08:43:49;;;;;;;37.70;35.40;;;;;;;11.23;100.00;100063.56;5033213;28;20443;-50
2022/11/04 08:46:18;;;;;;;36.20;34.07;;;;;;;11.21;100.00;100070.97;5033402;28;20436;-46
2022/11/04 08:48:45;;;;;;;39.47;36.57;;;;;;;11.25;100.00;100069.53;5032881;28;20513;-45
2022/11/04 08:51:17;;;;;;;36.67;34.57;;;;;;;11.25;100.00;100066.84;5033010;28;20917;-47
2022/11/04 08:53:44;;;;;;;36.47;34.23;;;;;;;11.30;100.00;100061.66;5033082;28;20985;-48
2022/11/04 08:56:15;;;;;;;37.57;35.07;;;;;;;11.42;100.00;100061.78;5032888;28;20498;-45
2022/11/04 08:58:43;;;;;;;36.87;34.57;;;;;;;11.46;100.00;100063.81;5031804;28;20452;-47
2022/11/04 09:01:11;;;;;;;36.53;34.03;;;;;;;11.54;100.00;100071.53;5032522;28;20993;-45
2022/11/04 09:03:40;;;;;;;35.00;32.90;;;;;;;11.54;100.00;100082.22;5033066;28;20456;-46
2022/11/04 09:06:10;;;;;;;34.57;32.27;;;;;;;11.54;100.00;100066.19;5032863;28;20490;-47
2022/11/04 09:08:40;;;;;;;37.03;34.60;;;;;;;11.59;100.00;100074.34;5032430;28;20456;-45
2022/11/04 09:11:08;;;;;;;37.17;34.70;;;;;;;11.64;100.00;100071.88;5032804;28;20428;-47
2022/11/04 09:13:37;;;;;;;37.73;35.57;;;;;;;11.65;100.00;100086.84;5032723;28;20502;-50
2022/11/04 09:16:08;;;;;;;36.80;34.50;;;;;;;11.73;100.00;100080.44;5032754;28;20425;-48
2022/11/04 09:18:35;;;;;;;37.30;35.07;;;;;;;11.85;100.00;100084.03;5028519;28;20472;-48
2022/11/04 09:21:05;;;;;;;38.43;35.90;;;;;;;12.00;100.00;100075.66;5012068;28;20472;-45
2022/11/04 09:23:32;;;;;;;38.73;36.63;;;;;;;12.03;100.00;100092.06;5020940;28;20461;-53
2022/11/04 09:26:06;;;;;;;38.63;36.03;;;;;;;12.06;100.00;100098.81;5012818;28;20460;-45
2022/11/04 09:28:34;;;;;;;38.40;36.37;;;;;;;12.07;100.00;100093.22;5012200;28;20464;-49
2022/11/04 09:31:05;;;;;;;38.87;36.37;;;;;;;12.10;100.00;100103.47;5012370;28;20433;-51
2022/11/04 09:33:33;;;;;;;38.67;36.00;;;;;;;12.17;100.00;100108.75;5012454;28;20882;-46
2022/11/04 09:36:00;;;;;;;37.83;35.53;;;;;;;12.23;100.00;100123.09;5012394;28;20433;-47
2022/11/04 09:38:29;;;;;;;37.30;35.07;;;;;;;12.24;100.00;100122.06;5011979;28;20461;-48
2022/11/04 09:40:58;;;;;;;38.27;35.60;;;;;;;12.20;100.00;100129.69;5012336;28;20524;-46
2022/11/04 09:43:50;;;;;;;37.30;34.70;;;;;;;12.17;100.00;100130.16;5012348;28;20453;-48
2022/11/04 09:46:18;;;;;;;37.33;35.23;;;;;;;12.18;100.00;100143.28;5012199;28;20491;-46
2022/11/04 09:48:50;;;;;;;38.63;36.17;;;;;;;12.08;100.00;100142.97;5011897;28;20469;-45
2022/11/04 09:51:20;;;;;;;37.33;35.20;;;;;;;12.10;100.00;100148.09;5012225;28;20425;-50
2022/11/04 09:54:15;;;;;;;37.63;35.10;;;;;;;12.21;100.00;100158.88;5012425;28;20471;-45
2022/11/04 09:56:45;;;;;;;37.47;35.17;;;;;;;12.30;100.00;100146.06;5012085;28;20920;-47
2022/11/04 09:59:20;;;;;;;36.03;33.90;;;;;;;12.37;100.00;100170.84;5011653;28;20476;-52
2022/11/04 10:01:58;;;;;;;38.27;35.67;;;;;;;12.50;100.00;100165.38;5011870;28;20476;-46
2022/11/04 10:04:36;;;;;;;38.30;35.73;;;;;;;12.73;100.00;100162.81;5012138;28;20433;-48
2022/11/04 10:07:13;;;;;;;36.80;34.40;;;;;;;12.78;100.00;100175.56;5012014;28;20519;-48
2022/11/04 10:09:54;;;;;;;38.10;35.40;;;;;;;12.93;100.00;100181.28;5011622;28;20490;-47
2022/11/04 10:12:40;;;;;;;38.30;36.00;;;;;;;12.97;100.00;100176.31;5011768;28;20445;-46
2022/11/04 10:15:23;;;;;;;37.73;35.23;;;;;;;12.97;100.00;100184.34;5012044;28;20433;-50
2022/11/04 10:18:04;;;;;;;38.13;35.60;;;;;;;12.97;100.00;100197.72;5011483;28;20465;-45
2022/11/04 10:20:44;;;;;;;36.60;34.30;;;;;;;13.00;100.00;100205.31;5006527;28;20430;-46
2022/11/04 10:23:21;;;;;;;37.10;34.60;;;;;;;13.04;100.00;100203.81;5019911;28;20452;-49
2022/11/04 10:25:55;;;;;;;36.63;33.93;;;;;;;13.08;100.00;100213.88;5011931;28;20475;-48
2022/11/04 10:28:30;;;;;;;37.60;34.10;;;;;;;13.07;100.00;100211.41;5011551;28;20523;-46
2022/11/04 10:31:00;;;;;;;36.20;34.30;;;;;;;13.18;100.00;100214.16;5011724;28;20475;-47
2022/11/04 10:33:34;;;;;;;37.20;34.50;;;;;;;13.13;100.00;100210.53;5011702;28;20468;-46
2022/11/04 10:36:03;;;;;;;35.87;33.77;;;;;;;13.20;100.00;100222.00;5011916;28;20479;-45
2022/11/04 10:38:36;;;;;;;35.57;33.37;;;;;;;13.28;100.00;100222.50;5011483;28;20477;-48
2022/11/04 10:41:17;;;;;;;35.67;33.27;;;;;;;13.37;100.00;100222.97;5011569;28;20472;-46
2022/11/04 10:43:46;;;;;;;36.97;34.13;;;;;;;13.34;100.00;100222.63;5011646;28;20503;-47
2022/11/04 10:46:26;;;;;;;34.53;32.53;;;;;;;13.23;100.00;100232.25;5011650;28;20440;-48
2022/11/04 10:49:00;;;;;;;34.50;31.77;;;;;;;13.07;100.00;100243.53;5010830;28;20460;-51
2022/11/04 10:51:28;;;;;;;33.20;31.60;;;;;;;12.94;100.00;100230.28;5011470;28;20432;-49
2022/11/04 10:53:58;;;;;;;33.93;32.23;;;;;;;12.85;100.00;100234.31;5011484;28;20946;-47
2022/11/04 10:56:35;;;;;;;33.20;31.27;;;;;;;12.80;100.00;100243.03;5011629;28;20433;-48
2022/11/04 10:59:16;;;;;;;33.43;31.30;;;;;;;12.65;100.00;100245.25;5010749;28;20468;-48
2022/11/04 11:01:53;;;;;;;33.20;31.20;;;;;;;12.55;100.00;100255.63;5011110;28;20479;-51
2022/11/04 11:04:29;;;;;;;32.40;30.50;;;;;;;12.53;100.00;100255.03;5011605;28;20437;-47
2022/11/04 11:07:00;;;;;;;33.10;31.17;;;;;;;12.65;100.00;100258.63;5011567;28;20491;-49
2022/11/04 11:09:29;;;;;;;30.87;29.27;;;;;;;12.70;100.00;100253.41;5010560;28;20473;-49
2022/11/04 11:12:00;;;;;;;32.50;30.73;;;;;;;12.83;100.00;100261.31;5011577;28;20445;-47
2022/11/04 11:14:33;;;;;;;33.77;31.17;;;;;;;12.93;100.00;100255.44;5011432;28;20540;-48
2022/11/04 11:17:23;;;;;;;33.07;30.80;;;;;;;12.92;100.00;100257.28;5011443;28;20923;-45
2022/11/04 11:19:55;;;;;;;31.33;29.60;;;;;;;12.86;100.00;100252.84;4989675;28;20442;-48
2022/11/04 11:22:36;;;;;;;32.60;30.83;;;;;;;12.76;100.00;100264.06;5000646;28;20476;-46
2022/11/04 11:25:20;;;;;;;32.97;31.10;;;;;;;12.71;100.00;100266.59;4995425;28;20430;-46
2022/11/04 11:27:49;;;;;;;31.03;29.50;;;;;;;12.58;100.00;100274.72;4994570;28;20504;-46
2022/11/04 11:30:27;;;;;;;31.60;29.80;;;;;;;12.51;100.00;100282.03;4995344;28;20476;-48
2022/11/04 11:33:00;;;;;;;32.07;30.23;;;;;;;12.46;100.00;100287.19;4994889;28;20465;-46
2022/11/04 11:35:33;;;;;;;31.60;30.23;;;;;;;12.37;100.00;100291.19;4995113;28;20430;-48
2022/11/04 11:38:04;;;;;;;33.37;31.20;;;;;;;12.35;100.00;100287.91;4993485;28;21063;-45
2022/11/04 11:40:37;;;;;;;31.00;29.60;;;;;;;12.30;100.00;100287.75;4995031;28;20847;-50
2022/11/04 11:43:26;;;;;;;32.10;30.70;;;;;;;12.53;100.00;100303.19;4995123;28;20514;-46
2022/11/04 11:45:56;;;;;;;32.77;30.90;;;;;;;12.61;100.00;100294.88;4995177;28;20466;-51
2022/11/04 11:48:30;;;;;;;33.07;31.33;;;;;;;12.76;100.00;100301.50;4994292;28;20473;-50
2022/11/04 11:50:59;;;;;;;32.53;31.00;;;;;;;12.94;100.00;100294.53;4994603;28;20982;-48
2022/11/04 11:53:29;;;;;;;32.90;31.17;;;;;;;13.06;100.00;100296.25;4994676;28;20473;-49
2022/11/04 11:56:08;;;;;;;32.27;30.63;;;;;;;13.18;100.00;100310.56;4994898;28;20430;-48